sensor_id;sensor_type;location;lat;lon;timestamp;pressure;altitude;pressure_sealevel;temperature;humidity
56600;BME280;51832;48.152;11.530;2023-06-26T00:00:01;95539.66;;;25.84;36.09
56600;BME280;51832;48.152;11.530;2023-06-26T00:05:03;95538.13;;;26.09;35.35
56600;BME280;51832;48.152;11.530;2023-06-26T00:10:05;95527.00;;;26.02;35.46
56600;BME280;51832;48.152;11.530;2023-06-26T00:15:06;95534.13;;;25.98;35.73
56600;BME280;51832;48.152;11.530;2023-06-26T00:20:08;95542.00;;;25.51;35.84
56600;BME280;51832;48.152;11.530;2023-06-26T00:25:09;95542.31;;;25.49;36.10
56600;BME280;51832;48.152;11.530;2023-06-26T00:30:09;95534.63;;;25.82;35.55
56600;BME280;51832;48.152;11.530;2023-06-26T00:35:10;95550.00;;;25.82;36.27
56600;BME280;51832;48.152;11.530;2023-06-26T00:40:12;95545.78;;;25.59;36.82
56600;BME280;51832;48.152;11.530;2023-06-26T00:45:13;95543.50;;;25.26;36.78
56600;BME280;51832;48.152;11.530;2023-06-26T00:50:13;95550.78;;;24.64;37.72
56600;BME280;51832;48.152;11.530;2023-06-26T00:55:16;95553.47;;;24.19;39.00
56600;BME280;51832;48.152;11.530;2023-06-26T01:00:16;95553.69;;;24.76;38.36
56600;BME280;51832;48.152;11.530;2023-06-26T01:05:17;95545.69;;;24.85;38.31
56600;BME280;51832;48.152;11.530;2023-06-26T01:10:21;95542.72;;;24.64;38.87
56600;BME280;51832;48.152;11.530;2023-06-26T01:15:21;95547.00;;;24.65;38.80
56600;BME280;51832;48.152;11.530;2023-06-26T01:20:21;95540.19;;;24.59;38.77
56600;BME280;51832;48.152;11.530;2023-06-26T01:25:41;95544.41;;;24.29;39.28
56600;BME280;51832;48.152;11.530;2023-06-26T01:30:49;95545.84;;;24.13;40.00
56600;BME280;51832;48.152;11.530;2023-06-26T01:35:51;95540.50;;;23.99;40.28
56600;BME280;51832;48.152;11.530;2023-06-26T01:40:52;95543.69;;;24.01;40.42
56600;BME280;51832;48.152;11.530;2023-06-26T01:45:57;95534.09;;;23.86;40.67
56600;BME280;51832;48.152;11.530;2023-06-26T01:50:59;95536.50;;;23.74;41.29
56600;BME280;51832;48.152;11.530;2023-06-26T01:56:06;95534.66;;;23.47;41.93
56600;BME280;51832;48.152;11.530;2023-06-26T02:01:08;95534.69;;;23.20;42.83
56600;BME280;51832;48.152;11.530;2023-06-26T02:06:08;95529.81;;;22.94;43.69
56600;BME280;51832;48.152;11.530;2023-06-26T02:11:09;95535.47;;;22.93;43.77
56600;BME280;51832;48.152;11.530;2023-06-26T02:16:09;95535.75;;;22.91;44.02
56600;BME280;51832;48.152;11.530;2023-06-26T02:21:10;95532.59;;;23.03;43.60
56600;BME280;51832;48.152;11.530;2023-06-26T02:26:10;95541.16;;;22.73;44.48
56600;BME280;51832;48.152;11.530;2023-06-26T02:31:11;95538.84;;;22.52;45.24
56600;BME280;51832;48.152;11.530;2023-06-26T02:36:11;95527.81;;;22.40;45.84
56600;BME280;51832;48.152;11.530;2023-06-26T02:41:12;95539.44;;;22.49;45.61
56600;BME280;51832;48.152;11.530;2023-06-26T02:46:12;95536.84;;;22.44;46.09
56600;BME280;51832;48.152;11.530;2023-06-26T02:51:13;95535.13;;;22.67;45.50
56600;BME280;51832;48.152;11.530;2023-06-26T02:56:13;95531.31;;;22.54;46.00
56600;BME280;51832;48.152;11.530;2023-06-26T03:01:14;95535.97;;;21.97;46.74
56600;BME280;51832;48.152;11.530;2023-06-26T03:06:15;95535.91;;;21.84;47.22
56600;BME280;51832;48.152;11.530;2023-06-26T03:11:15;95533.88;;;21.57;48.10
56600;BME280;51832;48.152;11.530;2023-06-26T03:16:16;95542.38;;;21.40;48.53
56600;BME280;51832;48.152;11.530;2023-06-26T03:21:17;95538.94;;;21.77;47.62
56600;BME280;51832;48.152;11.530;2023-06-26T03:26:17;95526.78;;;22.36;46.55
56600;BME280;51832;48.152;11.530;2023-06-26T03:31:17;95535.53;;;22.09;46.54
56600;BME280;51832;48.152;11.530;2023-06-26T03:36:18;95528.16;;;22.01;47.16
56600;BME280;51832;48.152;11.530;2023-06-26T03:41:18;95529.47;;;21.85;47.31
56600;BME280;51832;48.152;11.530;2023-06-26T03:46:19;95533.06;;;21.75;47.52
56600;BME280;51832;48.152;11.530;2023-06-26T03:51:19;95534.22;;;21.88;47.10
56600;BME280;51832;48.152;11.530;2023-06-26T03:56:20;95542.25;;;22.25;45.88
56600;BME280;51832;48.152;11.530;2023-06-26T04:01:20;95532.22;;;22.31;45.95
56600;BME280;51832;48.152;11.530;2023-06-26T04:06:21;95539.13;;;22.37;45.84
56600;BME280;51832;48.152;11.530;2023-06-26T04:11:22;95533.78;;;22.18;46.05
56600;BME280;51832;48.152;11.530;2023-06-26T04:16:22;95543.28;;;22.43;45.75
56600;BME280;51832;48.152;11.530;2023-06-26T04:21:25;95533.53;;;22.66;45.28
56600;BME280;51832;48.152;11.530;2023-06-26T04:26:25;95536.44;;;22.83;45.07
56600;BME280;51832;48.152;11.530;2023-06-26T04:31:27;95544.59;;;22.92;44.66
56600;BME280;51832;48.152;11.530;2023-06-26T04:36:28;95537.38;;;23.06;44.18
56600;BME280;51832;48.152;11.530;2023-06-26T04:41:28;95539.03;;;23.02;44.32
56600;BME280;51832;48.152;11.530;2023-06-26T04:46:29;95539.63;;;23.40;43.52
56600;BME280;51832;48.152;11.530;2023-06-26T04:51:29;95542.91;;;23.37;43.19
56600;BME280;51832;48.152;11.530;2023-06-26T04:56:29;95538.94;;;23.62;42.50
56600;BME280;51832;48.152;11.530;2023-06-26T05:01:31;95532.84;;;23.43;43.16
56600;BME280;51832;48.152;11.530;2023-06-26T05:06:32;95544.66;;;23.69;42.70
56600;BME280;51832;48.152;11.530;2023-06-26T05:11:32;95542.09;;;24.00;42.17
56600;BME280;51832;48.152;11.530;2023-06-26T05:16:33;95545.44;;;23.83;42.91
56600;BME280;51832;48.152;11.530;2023-06-26T05:21:34;95543.56;;;24.06;42.46
56600;BME280;51832;48.152;11.530;2023-06-26T05:26:35;95541.66;;;24.06;42.66
56600;BME280;51832;48.152;11.530;2023-06-26T05:31:40;95540.44;;;24.26;42.43
56600;BME280;51832;48.152;11.530;2023-06-26T05:36:41;95537.78;;;24.57;41.82
56600;BME280;51832;48.152;11.530;2023-06-26T05:41:45;95548.81;;;24.78;41.62
56600;BME280;51832;48.152;11.530;2023-06-26T05:46:46;95543.25;;;24.97;40.98
56600;BME280;51832;48.152;11.530;2023-06-26T05:51:46;95552.44;;;25.04;41.00
56600;BME280;51832;48.152;11.530;2023-06-26T05:56:47;95553.25;;;25.53;40.19
56600;BME280;51832;48.152;11.530;2023-06-26T06:01:48;95549.72;;;25.44;40.66
56600;BME280;51832;48.152;11.530;2023-06-26T06:06:48;95556.25;;;25.60;40.36
56600;BME280;51832;48.152;11.530;2023-06-26T06:11:49;95539.53;;;25.98;39.38
56600;BME280;51832;48.152;11.530;2023-06-26T06:16:49;95540.66;;;25.97;39.28
56600;BME280;51832;48.152;11.530;2023-06-26T06:21:49;95538.72;;;26.58;38.72
56600;BME280;51832;48.152;11.530;2023-06-26T06:26:50;95538.78;;;26.87;38.17
56600;BME280;51832;48.152;11.530;2023-06-26T06:31:50;95539.75;;;26.91;38.14
56600;BME280;51832;48.152;11.530;2023-06-26T06:36:51;95539.28;;;26.89;38.36
56600;BME280;51832;48.152;11.530;2023-06-26T06:41:52;95548.00;;;26.86;38.59
56600;BME280;51832;48.152;11.530;2023-06-26T06:46:52;95545.78;;;26.88;39.42
56600;BME280;51832;48.152;11.530;2023-06-26T06:51:53;95541.56;;;26.61;38.49
56600;BME280;51832;48.152;11.530;2023-06-26T06:56:53;95537.75;;;27.17;37.76
56600;BME280;51832;48.152;11.530;2023-06-26T07:01:53;95551.53;;;26.78;38.05
56600;BME280;51832;48.152;11.530;2023-06-26T07:06:54;95538.31;;;27.61;36.77
56600;BME280;51832;48.152;11.530;2023-06-26T07:11:54;95544.84;;;27.31;37.51
56600;BME280;51832;48.152;11.530;2023-06-26T07:16:54;95543.16;;;27.17;37.51
56600;BME280;51832;48.152;11.530;2023-06-26T07:21:55;95548.72;;;27.80;36.68
56600;BME280;51832;48.152;11.530;2023-06-26T07:26:55;95546.06;;;27.71;36.76
56600;BME280;51832;48.152;11.530;2023-06-26T07:31:56;95544.63;;;27.74;37.38
56600;BME280;51832;48.152;11.530;2023-06-26T07:36:56;95542.66;;;27.83;37.64
56600;BME280;51832;48.152;11.530;2023-06-26T07:41:57;95542.78;;;27.86;37.51
56600;BME280;51832;48.152;11.530;2023-06-26T07:46:59;95543.44;;;28.04;38.22
56600;BME280;51832;48.152;11.530;2023-06-26T07:51:59;95545.94;;;28.51;36.94
56600;BME280;51832;48.152;11.530;2023-06-26T07:57:01;95548.69;;;29.08;36.96
56600;BME280;51832;48.152;11.530;2023-06-26T08:02:02;95548.34;;;28.11;38.46
56600;BME280;51832;48.152;11.530;2023-06-26T08:07:03;95540.38;;;28.47;38.22
56600;BME280;51832;48.152;11.530;2023-06-26T08:12:04;95542.63;;;28.78;37.45
56600;BME280;51832;48.152;11.530;2023-06-26T08:17:04;95546.53;;;28.56;37.99
56600;BME280;51832;48.152;11.530;2023-06-26T08:22:05;95534.69;;;29.06;37.32
56600;BME280;51832;48.152;11.530;2023-06-26T08:27:05;95547.50;;;28.85;37.49
56600;BME280;51832;48.152;11.530;2023-06-26T08:32:07;95536.72;;;28.97;36.97
56600;BME280;51832;48.152;11.530;2023-06-26T08:37:08;95553.00;;;29.09;36.85
56600;BME280;51832;48.152;11.530;2023-06-26T08:42:09;95530.53;;;29.57;36.45
56600;BME280;51832;48.152;11.530;2023-06-26T08:47:11;95533.25;;;29.45;35.73
56600;BME280;51832;48.152;11.530;2023-06-26T08:52:31;95528.06;;;29.64;36.20
56600;BME280;51832;48.152;11.530;2023-06-26T08:57:34;95520.09;;;29.84;34.94
56600;BME280;51832;48.152;11.530;2023-06-26T09:02:37;95521.34;;;29.98;34.76
56600;BME280;51832;48.152;11.530;2023-06-26T09:07:38;95511.38;;;29.90;33.94
56600;BME280;51832;48.152;11.530;2023-06-26T09:12:39;95511.97;;;30.52;33.52
56600;BME280;51832;48.152;11.530;2023-06-26T09:17:40;95507.09;;;30.29;33.53
56600;BME280;51832;48.152;11.530;2023-06-26T09:22:43;95507.41;;;31.31;31.97
56600;BME280;51832;48.152;11.530;2023-06-26T09:27:47;95512.31;;;30.22;32.89
56600;BME280;51832;48.152;11.530;2023-06-26T09:32:48;95505.56;;;31.03;31.83
56600;BME280;51832;48.152;11.530;2023-06-26T09:37:50;95489.19;;;31.00;30.21
56600;BME280;51832;48.152;11.530;2023-06-26T09:42:51;95501.78;;;30.61;30.63
56600;BME280;51832;48.152;11.530;2023-06-26T09:47:51;95489.97;;;30.85;29.90
56600;BME280;51832;48.152;11.530;2023-06-26T09:52:52;95489.63;;;31.02;29.22
56600;BME280;51832;48.152;11.530;2023-06-26T09:57:55;95472.53;;;31.17;29.29
56600;BME280;51832;48.152;11.530;2023-06-26T10:02:56;95475.09;;;31.10;29.24
56600;BME280;51832;48.152;11.530;2023-06-26T10:07:58;95487.41;;;30.92;29.13
56600;BME280;51832;48.152;11.530;2023-06-26T10:13:15;95477.16;;;31.01;28.95
56600;BME280;51832;48.152;11.530;2023-06-26T10:18:21;95463.56;;;31.83;27.05
56600;BME280;51832;48.152;11.530;2023-06-26T10:23:25;95483.41;;;31.17;28.76
56600;BME280;51832;48.152;11.530;2023-06-26T10:28:28;95466.28;;;31.17;28.86
56600;BME280;51832;48.152;11.530;2023-06-26T10:33:30;95476.22;;;31.25;28.53
56600;BME280;51832;48.152;11.530;2023-06-26T10:38:57;95462.53;;;31.91;26.90
56600;BME280;51832;48.152;11.530;2023-06-26T10:48:59;95459.53;;;31.42;27.68
56600;BME280;51832;48.152;11.530;2023-06-26T10:54:00;95446.13;;;31.68;27.79
56600;BME280;51832;48.152;11.530;2023-06-26T10:59:15;95460.03;;;31.83;27.31
56600;BME280;51832;48.152;11.530;2023-06-26T11:04:16;95459.31;;;32.43;27.15
56600;BME280;51832;48.152;11.530;2023-06-26T11:09:18;95463.25;;;31.69;28.30
56600;BME280;51832;48.152;11.530;2023-06-26T11:14:24;95455.53;;;31.90;27.47
56600;BME280;51832;48.152;11.530;2023-06-26T11:19:27;95459.28;;;32.63;26.84
56600;BME280;51832;48.152;11.530;2023-06-26T11:24:33;95456.03;;;32.34;27.52
56600;BME280;51832;48.152;11.530;2023-06-26T11:29:33;95449.44;;;32.58;27.06
56600;BME280;51832;48.152;11.530;2023-06-26T11:34:34;95471.56;;;31.95;28.46
56600;BME280;51832;48.152;11.530;2023-06-26T11:39:35;95462.97;;;32.32;28.01
56600;BME280;51832;48.152;11.530;2023-06-26T11:44:44;95460.00;;;32.60;27.48
56600;BME280;51832;48.152;11.530;2023-06-26T11:49:46;95451.41;;;33.03;26.95
56600;BME280;51832;48.152;11.530;2023-06-26T11:54:47;95431.22;;;33.08;27.02
56600;BME280;51832;48.152;11.530;2023-06-26T11:59:50;95437.69;;;32.54;25.80
56600;BME280;51832;48.152;11.530;2023-06-26T12:04:50;95438.25;;;33.09;25.24
56600;BME280;51832;48.152;11.530;2023-06-26T12:09:51;95453.91;;;32.66;26.35
56600;BME280;51832;48.152;11.530;2023-06-26T12:14:52;95442.88;;;32.82;26.72
56600;BME280;51832;48.152;11.530;2023-06-26T12:19:52;95465.06;;;32.19;27.89
56600;BME280;51832;48.152;11.530;2023-06-26T12:24:56;95437.09;;;33.33;26.96
56600;BME280;51832;48.152;11.530;2023-06-26T12:29:57;95446.97;;;32.95;26.57
56600;BME280;51832;48.152;11.530;2023-06-26T12:34:58;95422.34;;;33.37;25.24
56600;BME280;51832;48.152;11.530;2023-06-26T12:39:58;95423.13;;;33.38;25.38
56600;BME280;51832;48.152;11.530;2023-06-26T12:44:59;95438.63;;;33.30;26.00
56600;BME280;51832;48.152;11.530;2023-06-26T12:50:05;95435.13;;;33.07;26.11
56600;BME280;51832;48.152;11.530;2023-06-26T12:55:06;95443.25;;;32.80;26.26
56600;BME280;51832;48.152;11.530;2023-06-26T13:00:07;95419.25;;;33.39;25.52
56600;BME280;51832;48.152;11.530;2023-06-26T13:05:07;95435.56;;;33.35;26.00
56600;BME280;51832;48.152;11.530;2023-06-26T13:10:08;95433.97;;;33.87;24.96
56600;BME280;51832;48.152;11.530;2023-06-26T13:15:09;95409.13;;;33.39;25.52
56600;BME280;51832;48.152;11.530;2023-06-26T13:20:10;95408.19;;;34.21;24.67
56600;BME280;51832;48.152;11.530;2023-06-26T13:25:11;95393.25;;;34.45;25.03
56600;BME280;51832;48.152;11.530;2023-06-26T13:30:12;95394.25;;;34.27;25.98
56600;BME280;51832;48.152;11.530;2023-06-26T13:35:13;95396.19;;;33.93;26.51
56600;BME280;51832;48.152;11.530;2023-06-26T13:40:14;95391.25;;;34.39;25.94
56600;BME280;51832;48.152;11.530;2023-06-26T13:45:14;95399.91;;;34.48;25.25
56600;BME280;51832;48.152;11.530;2023-06-26T13:50:15;95386.09;;;34.34;25.35
56600;BME280;51832;48.152;11.530;2023-06-26T13:55:15;95384.06;;;35.12;24.66
56600;BME280;51832;48.152;11.530;2023-06-26T14:00:16;95408.69;;;35.15;24.60
56600;BME280;51832;48.152;11.530;2023-06-26T14:05:20;95392.06;;;35.42;23.95
56600;BME280;51832;48.152;11.530;2023-06-26T14:10:22;95386.94;;;35.33;24.18
56600;BME280;51832;48.152;11.530;2023-06-26T14:15:22;95382.28;;;34.82;23.96
56600;BME280;51832;48.152;11.530;2023-06-26T14:20:23;95371.63;;;34.70;24.34
56600;BME280;51832;48.152;11.530;2023-06-26T14:25:25;95382.69;;;34.88;24.37
56600;BME280;51832;48.152;11.530;2023-06-26T14:30:26;95372.19;;;35.52;23.65
56600;BME280;51832;48.152;11.530;2023-06-26T14:35:27;95365.44;;;36.22;22.71
56600;BME280;51832;48.152;11.530;2023-06-26T14:40:27;95367.38;;;36.21;22.86
56600;BME280;51832;48.152;11.530;2023-06-26T14:45:27;95368.03;;;35.83;23.13
56600;BME280;51832;48.152;11.530;2023-06-26T14:50:28;95366.47;;;35.75;23.21
56600;BME280;51832;48.152;11.530;2023-06-26T14:55:28;95364.66;;;35.31;23.62
56600;BME280;51832;48.152;11.530;2023-06-26T15:00:28;95358.31;;;36.00;22.81
56600;BME280;51832;48.152;11.530;2023-06-26T15:05:29;95345.47;;;36.21;22.94
56600;BME280;51832;48.152;11.530;2023-06-26T15:10:29;95355.97;;;35.98;23.67
56600;BME280;51832;48.152;11.530;2023-06-26T15:15:30;95342.06;;;34.86;24.24
56600;BME280;51832;48.152;11.530;2023-06-26T15:20:30;95353.78;;;34.83;24.66
56600;BME280;51832;48.152;11.530;2023-06-26T15:25:31;95347.06;;;34.33;25.06
56600;BME280;51832;48.152;11.530;2023-06-26T15:30:32;95361.84;;;33.58;25.87
56600;BME280;51832;48.152;11.530;2023-06-26T15:35:32;95344.13;;;33.45;25.88
56600;BME280;51832;48.152;11.530;2023-06-26T15:40:33;95344.16;;;33.78;25.84
56600;BME280;51832;48.152;11.530;2023-06-26T15:45:33;95337.16;;;33.21;27.77
56600;BME280;51832;48.152;11.530;2023-06-26T15:50:34;95340.75;;;32.49;29.35
56600;BME280;51832;48.152;11.530;2023-06-26T15:55:34;95347.97;;;32.38;30.93
56600;BME280;51832;48.152;11.530;2023-06-26T16:00:35;95353.88;;;31.44;33.88
56600;BME280;51832;48.152;11.530;2023-06-26T16:05:35;95363.88;;;30.70;35.64
56600;BME280;51832;48.152;11.530;2023-06-26T16:10:35;95355.53;;;30.79;36.06
56600;BME280;51832;48.152;11.530;2023-06-26T16:15:36;95354.56;;;30.87;35.93
56600;BME280;51832;48.152;11.530;2023-06-26T16:20:36;95330.44;;;31.01;35.35
56600;BME280;51832;48.152;11.530;2023-06-26T16:25:37;95326.16;;;31.19;35.23
56600;BME280;51832;48.152;11.530;2023-06-26T16:30:37;95330.53;;;30.89;35.72
56600;BME280;51832;48.152;11.530;2023-06-26T16:35:37;95328.06;;;30.99;35.75
56600;BME280;51832;48.152;11.530;2023-06-26T16:40:38;95340.75;;;30.60;36.66
56600;BME280;51832;48.152;11.530;2023-06-26T16:45:38;95341.28;;;31.01;36.41
56600;BME280;51832;48.152;11.530;2023-06-26T16:50:39;95335.50;;;31.02;36.55
56600;BME280;51832;48.152;11.530;2023-06-26T16:55:39;95339.03;;;30.87;36.72
56600;BME280;51832;48.152;11.530;2023-06-26T17:00:40;95340.59;;;31.39;35.77
56600;BME280;51832;48.152;11.530;2023-06-26T17:05:40;95346.00;;;31.58;35.55
56600;BME280;51832;48.152;11.530;2023-06-26T17:10:41;95345.78;;;31.48;35.74
56600;BME280;51832;48.152;11.530;2023-06-26T17:15:42;95357.81;;;31.47;36.19
56600;BME280;51832;48.152;11.530;2023-06-26T17:20:42;95348.03;;;31.42;36.61
56600;BME280;51832;48.152;11.530;2023-06-26T17:25:43;95354.56;;;30.87;38.78
56600;BME280;51832;48.152;11.530;2023-06-26T17:30:44;95361.69;;;30.60;39.65
56600;BME280;51832;48.152;11.530;2023-06-26T17:35:45;95363.19;;;30.57;40.28
56600;BME280;51832;48.152;11.530;2023-06-26T17:40:45;95358.88;;;30.56;40.87
56600;BME280;51832;48.152;11.530;2023-06-26T17:45:47;95351.75;;;30.52;41.32
56600;BME280;51832;48.152;11.530;2023-06-26T17:50:47;95355.03;;;29.98;42.45
56600;BME280;51832;48.152;11.530;2023-06-26T17:55:48;95382.88;;;29.55;43.74
56600;BME280;51832;48.152;11.530;2023-06-26T18:00:48;95406.41;;;28.29;47.71
56600;BME280;51832;48.152;11.530;2023-06-26T18:05:48;95405.34;;;28.21;49.08
56600;BME280;51832;48.152;11.530;2023-06-26T18:10:49;95392.97;;;28.57;49.24
56600;BME280;51832;48.152;11.530;2023-06-26T18:15:49;95388.81;;;28.59;49.47
56600;BME280;51832;48.152;11.530;2023-06-26T18:20:50;95413.50;;;28.58;49.73
56600;BME280;51832;48.152;11.530;2023-06-26T18:25:50;95417.59;;;28.52;50.49
56600;BME280;51832;48.152;11.530;2023-06-26T18:30:51;95445.75;;;28.18;51.99
56600;BME280;51832;48.152;11.530;2023-06-26T18:35:51;95451.25;;;28.30;52.00
56600;BME280;51832;48.152;11.530;2023-06-26T18:40:52;95476.44;;;27.39;54.87
56600;BME280;51832;48.152;11.530;2023-06-26T18:45:52;95474.41;;;27.06;56.25
56600;BME280;51832;48.152;11.530;2023-06-26T18:50:53;95482.84;;;27.05;56.46
56600;BME280;51832;48.152;11.530;2023-06-26T18:55:53;95478.50;;;27.12;56.07
56600;BME280;51832;48.152;11.530;2023-06-26T19:00:53;95479.56;;;26.82;57.28
56600;BME280;51832;48.152;11.530;2023-06-26T19:05:54;95470.78;;;27.02;57.35
56600;BME280;51832;48.152;11.530;2023-06-26T19:10:54;95472.13;;;27.17;57.30
56600;BME280;51832;48.152;11.530;2023-06-26T19:15:55;95465.06;;;27.04;56.09
56600;BME280;51832;48.152;11.530;2023-06-26T19:20:55;95470.50;;;26.86;56.03
56600;BME280;51832;48.152;11.530;2023-06-26T19:25:55;95470.66;;;26.90;55.73
56600;BME280;51832;48.152;11.530;2023-06-26T19:30:57;95488.09;;;26.92;55.61
56600;BME280;51832;48.152;11.530;2023-06-26T19:35:58;95505.19;;;26.67;56.08
56600;BME280;51832;48.152;11.530;2023-06-26T19:40:59;95511.06;;;26.69;54.64
56600;BME280;51832;48.152;11.530;2023-06-26T19:45:59;95520.41;;;26.72;54.54
56600;BME280;51832;48.152;11.530;2023-06-26T19:51:00;95528.25;;;26.47;54.29
56600;BME280;51832;48.152;11.530;2023-06-26T19:56:03;95529.22;;;26.43;55.02
56600;BME280;51832;48.152;11.530;2023-06-26T20:01:05;95535.53;;;26.55;54.64
56600;BME280;51832;48.152;11.530;2023-06-26T20:06:05;95552.69;;;26.42;54.13
56600;BME280;51832;48.152;11.530;2023-06-26T20:11:06;95560.63;;;26.22;54.11
56600;BME280;51832;48.152;11.530;2023-06-26T20:16:06;95556.50;;;25.98;55.09
56600;BME280;51832;48.152;11.530;2023-06-26T20:21:07;95558.41;;;25.80;54.59
56600;BME280;51832;48.152;11.530;2023-06-26T20:26:07;95566.47;;;25.98;53.72
56600;BME280;51832;48.152;11.530;2023-06-26T20:31:08;95579.78;;;25.68;53.90
56600;BME280;51832;48.152;11.530;2023-06-26T20:36:11;95572.94;;;25.62;54.33
56600;BME280;51832;48.152;11.530;2023-06-26T20:41:11;95575.75;;;25.09;55.97
56600;BME280;51832;48.152;11.530;2023-06-26T20:46:12;95581.16;;;25.18;56.14
56600;BME280;51832;48.152;11.530;2023-06-26T20:51:17;95590.63;;;25.06;56.55
56600;BME280;51832;48.152;11.530;2023-06-26T20:56:20;95579.66;;;25.42;54.72
56600;BME280;51832;48.152;11.530;2023-06-26T21:01:21;95577.72;;;25.26;55.17
56600;BME280;51832;48.152;11.530;2023-06-26T21:06:21;95590.44;;;24.72;56.14
56600;BME280;51832;48.152;11.530;2023-06-26T21:11:22;95602.28;;;24.71;55.84
56600;BME280;51832;48.152;11.530;2023-06-26T21:16:22;95595.59;;;25.13;54.17
56600;BME280;51832;48.152;11.530;2023-06-26T21:21:22;95604.88;;;25.07;54.12
56600;BME280;51832;48.152;11.530;2023-06-26T21:26:23;95604.91;;;25.15;53.83
56600;BME280;51832;48.152;11.530;2023-06-26T21:31:23;95620.00;;;24.50;54.50
56600;BME280;51832;48.152;11.530;2023-06-26T21:36:24;95611.81;;;24.77;53.69
56600;BME280;51832;48.152;11.530;2023-06-26T21:41:24;95625.88;;;24.52;53.46
56600;BME280;51832;48.152;11.530;2023-06-26T21:46:25;95641.09;;;24.34;52.34
56600;BME280;51832;48.152;11.530;2023-06-26T21:51:25;95650.50;;;24.09;50.93
56600;BME280;51832;48.152;11.530;2023-06-26T21:56:25;95650.63;;;24.04;47.77
56600;BME280;51832;48.152;11.530;2023-06-26T22:01:27;95660.28;;;24.05;47.88
56600;BME280;51832;48.152;11.530;2023-06-26T22:06:27;95677.66;;;24.21;48.04
56600;BME280;51832;48.152;11.530;2023-06-26T22:11:28;95676.97;;;24.16;49.02
56600;BME280;51832;48.152;11.530;2023-06-26T22:16:28;95675.00;;;23.94;48.20
56600;BME280;51832;48.152;11.530;2023-06-26T22:21:29;95672.88;;;24.32;47.48
56600;BME280;51832;48.152;11.530;2023-06-26T22:26:29;95694.00;;;24.11;47.45
56600;BME280;51832;48.152;11.530;2023-06-26T22:31:30;95703.88;;;23.88;47.44
56600;BME280;51832;48.152;11.530;2023-06-26T22:36:30;95702.38;;;23.96;46.36
56600;BME280;51832;48.152;11.530;2023-06-26T22:41:31;95692.63;;;23.86;46.20
56600;BME280;51832;48.152;11.530;2023-06-26T22:46:31;95703.59;;;23.90;44.92
56600;BME280;51832;48.152;11.530;2023-06-26T22:51:31;95710.56;;;23.63;44.57
56600;BME280;51832;48.152;11.530;2023-06-26T22:56:33;95704.16;;;24.14;43.49
56600;BME280;51832;48.152;11.530;2023-06-26T23:01:34;95717.81;;;23.63;44.58
56600;BME280;51832;48.152;11.530;2023-06-26T23:06:36;95718.50;;;23.68;44.05
56600;BME280;51832;48.152;11.530;2023-06-26T23:11:37;95711.31;;;23.50;43.59
56600;BME280;51832;48.152;11.530;2023-06-26T23:16:38;95709.75;;;23.17;42.91
56600;BME280;51832;48.152;11.530;2023-06-26T23:21:39;95716.38;;;23.06;41.58
56600;BME280;51832;48.152;11.530;2023-06-26T23:26:39;95719.72;;;22.97;41.73
56600;BME280;51832;48.152;11.530;2023-06-26T23:31:40;95716.75;;;23.31;40.62
56600;BME280;51832;48.152;11.530;2023-06-26T23:36:44;95723.81;;;22.76;41.21
56600;BME280;51832;48.152;11.530;2023-06-26T23:41:45;95719.66;;;22.84;41.30
56600;BME280;51832;48.152;11.530;2023-06-26T23:46:49;95727.44;;;22.85;41.02
56600;BME280;51832;48.152;11.530;2023-06-26T23:51:50;95721.84;;;22.63;41.49
56600;BME280;51832;48.152;11.530;2023-06-26T23:56:51;95729.25;;;22.33;41.98
